sensor_id;sensor_type;location;lat;lon;timestamp;temperature;humidity
23289;DHT22;11813;50.834;4.280;2023-07-13T00:00:25;18.20;99.90
23289;DHT22;11813;50.834;4.280;2023-07-13T00:02:51;18.20;99.90
23289;DHT22;11813;50.834;4.280;2023-07-13T00:05:23;18.10;99.90
23289;DHT22;11813;50.834;4.280;2023-07-13T00:07:51;18.10;99.90
23289;DHT22;11813;50.834;4.280;2023-07-13T00:10:17;18.10;99.90
23289;DHT22;11813;50.834;4.280;2023-07-13T00:12:43;18.00;99.90
23289;DHT22;11813;50.834;4.280;2023-07-13T00:15:20;18.00;99.90
23289;DHT22;11813;50.834;4.280;2023-07-13T00:17:49;18.10;99.90
23289;DHT22;11813;50.834;4.280;2023-07-13T00:20:15;18.00;99.90
23289;DHT22;11813;50.834;4.280;2023-07-13T00:22:41;18.00;99.90
23289;DHT22;11813;50.834;4.280;2023-07-13T00:25:10;18.00;99.90
23289;DHT22;11813;50.834;4.280;2023-07-13T00:27:36;18.00;99.90
23289;DHT22;11813;50.834;4.280;2023-07-13T00:30:01;18.00;99.90
23289;DHT22;11813;50.834;4.280;2023-07-13T00:32:28;18.00;99.90
23289;DHT22;11813;50.834;4.280;2023-07-13T00:34:55;17.90;99.90
23289;DHT22;11813;50.834;4.280;2023-07-13T00:37:21;17.90;99.90
23289;DHT22;11813;50.834;4.280;2023-07-13T00:39:46;17.90;99.90
23289;DHT22;11813;50.834;4.280;2023-07-13T00:42:12;17.90;99.90
23289;DHT22;11813;50.834;4.280;2023-07-13T00:44:38;17.80;99.90
23289;DHT22;11813;50.834;4.280;2023-07-13T00:47:05;17.80;99.90
23289;DHT22;11813;50.834;4.280;2023-07-13T00:49:33;17.80;99.90
23289;DHT22;11813;50.834;4.280;2023-07-13T00:52:05;17.80;99.90
23289;DHT22;11813;50.834;4.280;2023-07-13T00:54:37;17.70;99.90
23289;DHT22;11813;50.834;4.280;2023-07-13T00:57:09;17.70;99.90
23289;DHT22;11813;50.834;4.280;2023-07-13T00:59:37;17.70;99.90
23289;DHT22;11813;50.834;4.280;2023-07-13T01:02:05;17.70;99.90
23289;DHT22;11813;50.834;4.280;2023-07-13T01:04:31;17.70;99.90
23289;DHT22;11813;50.834;4.280;2023-07-13T01:06:57;17.70;99.90
23289;DHT22;11813;50.834;4.280;2023-07-13T01:09:23;17.70;99.90
23289;DHT22;11813;50.834;4.280;2023-07-13T01:11:49;17.70;99.90
23289;DHT22;11813;50.834;4.280;2023-07-13T01:14:15;17.60;99.90
23289;DHT22;11813;50.834;4.280;2023-07-13T01:16:44;17.60;99.90
23289;DHT22;11813;50.834;4.280;2023-07-13T01:19:39;17.60;99.90
23289;DHT22;11813;50.834;4.280;2023-07-13T01:22:11;17.60;99.90
23289;DHT22;11813;50.834;4.280;2023-07-13T01:24:40;17.40;99.90
23289;DHT22;11813;50.834;4.280;2023-07-13T01:27:07;17.40;99.90
23289;DHT22;11813;50.834;4.280;2023-07-13T01:29:35;17.40;99.90
23289;DHT22;11813;50.834;4.280;2023-07-13T01:32:09;17.30;99.90
23289;DHT22;11813;50.834;4.280;2023-07-13T01:34:35;17.30;99.90
23289;DHT22;11813;50.834;4.280;2023-07-13T01:37:03;17.30;99.90
23289;DHT22;11813;50.834;4.280;2023-07-13T01:39:28;17.30;99.90
23289;DHT22;11813;50.834;4.280;2023-07-13T01:41:54;17.30;99.90
23289;DHT22;11813;50.834;4.280;2023-07-13T01:44:19;17.30;99.90
23289;DHT22;11813;50.834;4.280;2023-07-13T01:46:45;17.30;99.90
23289;DHT22;11813;50.834;4.280;2023-07-13T01:49:11;17.20;99.90
23289;DHT22;11813;50.834;4.280;2023-07-13T01:51:36;17.20;99.90
23289;DHT22;11813;50.834;4.280;2023-07-13T01:54:02;17.00;99.90
23289;DHT22;11813;50.834;4.280;2023-07-13T01:56:28;17.10;99.90
23289;DHT22;11813;50.834;4.280;2023-07-13T01:58:53;17.00;99.90
23289;DHT22;11813;50.834;4.280;2023-07-13T02:01:19;17.10;99.90
23289;DHT22;11813;50.834;4.280;2023-07-13T02:03:44;17.00;99.90
23289;DHT22;11813;50.834;4.280;2023-07-13T02:06:10;16.80;99.90
23289;DHT22;11813;50.834;4.280;2023-07-13T02:08:37;16.90;99.90
23289;DHT22;11813;50.834;4.280;2023-07-13T02:11:03;16.90;99.90
23289;DHT22;11813;50.834;4.280;2023-07-13T02:13:29;16.80;99.90
23289;DHT22;11813;50.834;4.280;2023-07-13T02:15:54;16.80;99.90
23289;DHT22;11813;50.834;4.280;2023-07-13T02:18:20;16.80;99.90
23289;DHT22;11813;50.834;4.280;2023-07-13T02:20:46;16.80;99.90
23289;DHT22;11813;50.834;4.280;2023-07-13T02:23:12;16.70;99.90
23289;DHT22;11813;50.834;4.280;2023-07-13T02:25:37;16.60;99.90
23289;DHT22;11813;50.834;4.280;2023-07-13T02:28:03;16.70;99.90
23289;DHT22;11813;50.834;4.280;2023-07-13T02:30:29;16.60;99.90
23289;DHT22;11813;50.834;4.280;2023-07-13T02:32:56;16.80;99.90
23289;DHT22;11813;50.834;4.280;2023-07-13T02:35:22;16.80;99.90
23289;DHT22;11813;50.834;4.280;2023-07-13T02:37:48;16.70;99.90
23289;DHT22;11813;50.834;4.280;2023-07-13T02:40:13;16.80;99.90
23289;DHT22;11813;50.834;4.280;2023-07-13T02:42:39;16.70;99.90
23289;DHT22;11813;50.834;4.280;2023-07-13T02:45:06;16.70;99.90
23289;DHT22;11813;50.834;4.280;2023-07-13T02:47:32;16.80;99.90
23289;DHT22;11813;50.834;4.280;2023-07-13T02:49:58;16.80;99.90
23289;DHT22;11813;50.834;4.280;2023-07-13T02:52:25;16.80;99.90
23289;DHT22;11813;50.834;4.280;2023-07-13T02:54:50;16.80;99.90
23289;DHT22;11813;50.834;4.280;2023-07-13T02:57:16;16.80;99.90
23289;DHT22;11813;50.834;4.280;2023-07-13T02:59:42;16.80;99.90
23289;DHT22;11813;50.834;4.280;2023-07-13T03:02:07;16.80;99.90
23289;DHT22;11813;50.834;4.280;2023-07-13T03:04:35;16.90;99.90
23289;DHT22;11813;50.834;4.280;2023-07-13T03:07:01;16.80;99.90
23289;DHT22;11813;50.834;4.280;2023-07-13T03:09:27;16.80;99.90
23289;DHT22;11813;50.834;4.280;2023-07-13T03:11:54;16.80;99.90
23289;DHT22;11813;50.834;4.280;2023-07-13T03:14:20;16.70;99.90
23289;DHT22;11813;50.834;4.280;2023-07-13T03:16:46;16.70;99.90
23289;DHT22;11813;50.834;4.280;2023-07-13T03:19:11;16.70;99.90
23289;DHT22;11813;50.834;4.280;2023-07-13T03:21:37;16.70;99.90
23289;DHT22;11813;50.834;4.280;2023-07-13T03:24:03;16.60;99.90
23289;DHT22;11813;50.834;4.280;2023-07-13T03:26:28;16.50;99.90
23289;DHT22;11813;50.834;4.280;2023-07-13T03:28:54;16.50;99.90
23289;DHT22;11813;50.834;4.280;2023-07-13T03:31:22;16.60;99.90
23289;DHT22;11813;50.834;4.280;2023-07-13T03:33:48;16.50;99.90
23289;DHT22;11813;50.834;4.280;2023-07-13T03:36:18;16.50;99.90
23289;DHT22;11813;50.834;4.280;2023-07-13T03:38:48;16.50;99.90
23289;DHT22;11813;50.834;4.280;2023-07-13T03:41:15;16.50;99.90
23289;DHT22;11813;50.834;4.280;2023-07-13T03:43:40;16.50;99.90
23289;DHT22;11813;50.834;4.280;2023-07-13T03:46:06;16.40;99.90
23289;DHT22;11813;50.834;4.280;2023-07-13T03:48:31;16.40;99.90
23289;DHT22;11813;50.834;4.280;2023-07-13T03:50:57;16.30;99.90
23289;DHT22;11813;50.834;4.280;2023-07-13T03:53:23;16.20;99.90
23289;DHT22;11813;50.834;4.280;2023-07-13T03:55:48;16.20;99.90
23289;DHT22;11813;50.834;4.280;2023-07-13T03:58:29;16.20;99.90
23289;DHT22;11813;50.834;4.280;2023-07-13T04:00:55;16.20;99.90
23289;DHT22;11813;50.834;4.280;2023-07-13T04:03:21;16.10;99.90
23289;DHT22;11813;50.834;4.280;2023-07-13T04:05:47;16.10;99.90
23289;DHT22;11813;50.834;4.280;2023-07-13T04:08:13;16.20;99.90
23289;DHT22;11813;50.834;4.280;2023-07-13T04:10:39;16.20;99.90
23289;DHT22;11813;50.834;4.280;2023-07-13T04:13:05;16.20;99.90
23289;DHT22;11813;50.834;4.280;2023-07-13T04:15:31;16.40;99.90
23289;DHT22;11813;50.834;4.280;2023-07-13T04:17:57;16.40;99.90
23289;DHT22;11813;50.834;4.280;2023-07-13T04:20:24;16.50;99.90
23289;DHT22;11813;50.834;4.280;2023-07-13T04:22:49;16.50;99.90
23289;DHT22;11813;50.834;4.280;2023-07-13T04:25:15;16.60;99.90
23289;DHT22;11813;50.834;4.280;2023-07-13T04:27:41;16.50;99.90
23289;DHT22;11813;50.834;4.280;2023-07-13T04:30:07;16.50;99.90
23289;DHT22;11813;50.834;4.280;2023-07-13T04:32:32;16.50;99.90
23289;DHT22;11813;50.834;4.280;2023-07-13T04:34:58;16.50;99.90
23289;DHT22;11813;50.834;4.280;2023-07-13T04:37:25;16.50;99.90
23289;DHT22;11813;50.834;4.280;2023-07-13T04:39:51;16.60;99.90
23289;DHT22;11813;50.834;4.280;2023-07-13T04:42:17;16.60;99.90
23289;DHT22;11813;50.834;4.280;2023-07-13T04:44:51;16.50;99.90
23289;DHT22;11813;50.834;4.280;2023-07-13T04:47:17;16.60;99.90
23289;DHT22;11813;50.834;4.280;2023-07-13T04:49:43;16.60;99.90
23289;DHT22;11813;50.834;4.280;2023-07-13T04:52:09;16.60;99.90
23289;DHT22;11813;50.834;4.280;2023-07-13T04:54:34;16.60;99.90
23289;DHT22;11813;50.834;4.280;2023-07-13T04:57:00;16.70;99.90
23289;DHT22;11813;50.834;4.280;2023-07-13T04:59:26;16.70;99.90
23289;DHT22;11813;50.834;4.280;2023-07-13T05:01:52;16.70;99.90
23289;DHT22;11813;50.834;4.280;2023-07-13T05:04:18;16.80;99.90
23289;DHT22;11813;50.834;4.280;2023-07-13T05:06:44;16.70;99.90
23289;DHT22;11813;50.834;4.280;2023-07-13T05:09:09;16.70;99.90
23289;DHT22;11813;50.834;4.280;2023-07-13T05:11:35;16.80;99.90
23289;DHT22;11813;50.834;4.280;2023-07-13T05:14:00;16.90;99.90
23289;DHT22;11813;50.834;4.280;2023-07-13T05:16:27;16.90;99.90
23289;DHT22;11813;50.834;4.280;2023-07-13T05:18:53;16.90;99.90
23289;DHT22;11813;50.834;4.280;2023-07-13T05:21:19;16.90;99.90
23289;DHT22;11813;50.834;4.280;2023-07-13T05:23:44;16.90;99.90
23289;DHT22;11813;50.834;4.280;2023-07-13T05:26:10;17.00;99.90
23289;DHT22;11813;50.834;4.280;2023-07-13T05:28:37;17.10;99.90
23289;DHT22;11813;50.834;4.280;2023-07-13T05:31:04;17.00;99.90
23289;DHT22;11813;50.834;4.280;2023-07-13T05:33:29;17.10;99.90
23289;DHT22;11813;50.834;4.280;2023-07-13T05:35:55;17.20;99.90
23289;DHT22;11813;50.834;4.280;2023-07-13T05:38:21;17.20;99.90
23289;DHT22;11813;50.834;4.280;2023-07-13T05:40:47;17.10;99.90
23289;DHT22;11813;50.834;4.280;2023-07-13T05:43:13;17.10;99.90
23289;DHT22;11813;50.834;4.280;2023-07-13T05:45:40;17.20;99.90
23289;DHT22;11813;50.834;4.280;2023-07-13T05:48:05;17.20;99.90
23289;DHT22;11813;50.834;4.280;2023-07-13T05:50:31;17.20;99.90
23289;DHT22;11813;50.834;4.280;2023-07-13T05:52:57;17.30;99.90
23289;DHT22;11813;50.834;4.280;2023-07-13T05:55:22;17.40;99.90
23289;DHT22;11813;50.834;4.280;2023-07-13T05:57:48;17.50;99.90
23289;DHT22;11813;50.834;4.280;2023-07-13T06:00:14;17.50;99.90
23289;DHT22;11813;50.834;4.280;2023-07-13T06:02:40;17.60;99.90
23289;DHT22;11813;50.834;4.280;2023-07-13T06:05:06;17.50;99.90
23289;DHT22;11813;50.834;4.280;2023-07-13T06:07:31;17.60;99.90
23289;DHT22;11813;50.834;4.280;2023-07-13T06:09:57;17.60;99.90
23289;DHT22;11813;50.834;4.280;2023-07-13T06:12:24;17.60;99.90
23289;DHT22;11813;50.834;4.280;2023-07-13T06:14:50;17.70;99.90
23289;DHT22;11813;50.834;4.280;2023-07-13T06:17:16;17.70;99.90
23289;DHT22;11813;50.834;4.280;2023-07-13T06:19:41;17.70;99.90
23289;DHT22;11813;50.834;4.280;2023-07-13T06:22:07;17.70;99.90
23289;DHT22;11813;50.834;4.280;2023-07-13T06:24:33;17.80;99.90
23289;DHT22;11813;50.834;4.280;2023-07-13T06:26:58;17.90;99.90
23289;DHT22;11813;50.834;4.280;2023-07-13T06:29:24;17.90;99.90
23289;DHT22;11813;50.834;4.280;2023-07-13T06:31:50;17.80;99.90
23289;DHT22;11813;50.834;4.280;2023-07-13T06:34:15;17.70;99.90
23289;DHT22;11813;50.834;4.280;2023-07-13T06:36:41;17.80;99.90
23289;DHT22;11813;50.834;4.280;2023-07-13T06:39:07;18.00;99.90
23289;DHT22;11813;50.834;4.280;2023-07-13T06:41:33;18.10;99.90
23289;DHT22;11813;50.834;4.280;2023-07-13T06:43:59;18.10;99.90
23289;DHT22;11813;50.834;4.280;2023-07-13T06:46:24;18.30;99.90
23289;DHT22;11813;50.834;4.280;2023-07-13T06:48:50;18.30;99.90
23289;DHT22;11813;50.834;4.280;2023-07-13T06:51:16;18.40;99.90
23289;DHT22;11813;50.834;4.280;2023-07-13T06:53:41;18.50;99.90
23289;DHT22;11813;50.834;4.280;2023-07-13T06:56:09;18.50;99.90
23289;DHT22;11813;50.834;4.280;2023-07-13T06:58:35;18.60;99.90
23289;DHT22;11813;50.834;4.280;2023-07-13T07:01:01;18.70;99.90
23289;DHT22;11813;50.834;4.280;2023-07-13T07:03:27;18.80;99.90
23289;DHT22;11813;50.834;4.280;2023-07-13T07:05:52;18.80;99.90
23289;DHT22;11813;50.834;4.280;2023-07-13T07:08:18;18.80;99.90
23289;DHT22;11813;50.834;4.280;2023-07-13T07:10:44;18.80;99.90
23289;DHT22;11813;50.834;4.280;2023-07-13T07:13:10;18.90;99.90
23289;DHT22;11813;50.834;4.280;2023-07-13T07:15:36;19.00;99.90
23289;DHT22;11813;50.834;4.280;2023-07-13T07:18:02;19.10;99.90
23289;DHT22;11813;50.834;4.280;2023-07-13T07:20:27;19.20;99.90
23289;DHT22;11813;50.834;4.280;2023-07-13T07:22:53;19.30;99.90
23289;DHT22;11813;50.834;4.280;2023-07-13T07:25:19;19.40;99.90
23289;DHT22;11813;50.834;4.280;2023-07-13T07:27:45;19.50;99.90
23289;DHT22;11813;50.834;4.280;2023-07-13T07:30:11;19.60;99.90
23289;DHT22;11813;50.834;4.280;2023-07-13T07:32:37;19.40;99.90
23289;DHT22;11813;50.834;4.280;2023-07-13T07:35:03;19.30;99.90
23289;DHT22;11813;50.834;4.280;2023-07-13T07:37:29;19.40;99.90
23289;DHT22;11813;50.834;4.280;2023-07-13T07:39:54;19.30;99.90
23289;DHT22;11813;50.834;4.280;2023-07-13T07:42:20;19.50;99.90
23289;DHT22;11813;50.834;4.280;2023-07-13T07:44:45;19.60;99.90
23289;DHT22;11813;50.834;4.280;2023-07-13T07:47:11;19.70;99.90
23289;DHT22;11813;50.834;4.280;2023-07-13T07:49:37;19.80;99.90
23289;DHT22;11813;50.834;4.280;2023-07-13T07:52:03;19.90;99.90
23289;DHT22;11813;50.834;4.280;2023-07-13T07:54:29;20.00;99.90
23289;DHT22;11813;50.834;4.280;2023-07-13T07:56:55;20.10;99.90
23289;DHT22;11813;50.834;4.280;2023-07-13T07:59:21;20.10;99.90
23289;DHT22;11813;50.834;4.280;2023-07-13T08:01:46;20.10;99.90
23289;DHT22;11813;50.834;4.280;2023-07-13T08:04:13;20.00;99.90
23289;DHT22;11813;50.834;4.280;2023-07-13T08:06:39;20.00;99.90
23289;DHT22;11813;50.834;4.280;2023-07-13T08:09:04;19.90;99.90
23289;DHT22;11813;50.834;4.280;2023-07-13T08:11:30;20.00;99.90
23289;DHT22;11813;50.834;4.280;2023-07-13T08:13:55;20.10;99.90
23289;DHT22;11813;50.834;4.280;2023-07-13T08:16:22;20.10;99.90
23289;DHT22;11813;50.834;4.280;2023-07-13T08:18:48;20.20;99.90
23289;DHT22;11813;50.834;4.280;2023-07-13T08:21:14;20.40;99.90
23289;DHT22;11813;50.834;4.280;2023-07-13T08:23:39;20.50;99.90
23289;DHT22;11813;50.834;4.280;2023-07-13T08:26:05;20.70;99.90
23289;DHT22;11813;50.834;4.280;2023-07-13T08:28:31;20.80;99.90
23289;DHT22;11813;50.834;4.280;2023-07-13T08:31:02;20.90;99.90
23289;DHT22;11813;50.834;4.280;2023-07-13T08:33:28;20.90;99.90
23289;DHT22;11813;50.834;4.280;2023-07-13T08:35:53;20.80;99.90
23289;DHT22;11813;50.834;4.280;2023-07-13T08:38:19;20.70;99.90
23289;DHT22;11813;50.834;4.280;2023-07-13T08:40:50;20.60;99.90
23289;DHT22;11813;50.834;4.280;2023-07-13T08:43:19;20.70;99.90
23289;DHT22;11813;50.834;4.280;2023-07-13T08:45:48;20.70;99.90
23289;DHT22;11813;50.834;4.280;2023-07-13T08:48:19;20.80;99.90
23289;DHT22;11813;50.834;4.280;2023-07-13T08:53:39;21.00;99.90
23289;DHT22;11813;50.834;4.280;2023-07-13T08:56:14;21.10;99.90
23289;DHT22;11813;50.834;4.280;2023-07-13T08:58:42;21.30;99.90
23289;DHT22;11813;50.834;4.280;2023-07-13T09:03:46;21.60;99.90
23289;DHT22;11813;50.834;4.280;2023-07-13T09:06:14;21.50;99.90
23289;DHT22;11813;50.834;4.280;2023-07-13T09:08:57;21.70;99.90
23289;DHT22;11813;50.834;4.280;2023-07-13T09:11:50;21.70;99.90
23289;DHT22;11813;50.834;4.280;2023-07-13T09:16:47;21.80;99.90
23289;DHT22;11813;50.834;4.280;2023-07-13T09:19:24;21.90;99.90
23289;DHT22;11813;50.834;4.280;2023-07-13T09:21:52;22.00;99.90
23289;DHT22;11813;50.834;4.280;2023-07-13T09:24:45;21.90;99.90
23289;DHT22;11813;50.834;4.280;2023-07-13T09:27:29;21.80;99.90
23289;DHT22;11813;50.834;4.280;2023-07-13T09:30:04;21.90;99.90
23289;DHT22;11813;50.834;4.280;2023-07-13T09:32:38;21.90;99.90
23289;DHT22;11813;50.834;4.280;2023-07-13T09:35:11;21.80;99.90
23289;DHT22;11813;50.834;4.280;2023-07-13T09:37:38;21.90;99.90
23289;DHT22;11813;50.834;4.280;2023-07-13T09:40:13;22.00;99.90
23289;DHT22;11813;50.834;4.280;2023-07-13T09:42:42;22.20;99.90
23289;DHT22;11813;50.834;4.280;2023-07-13T09:45:08;22.40;99.90
23289;DHT22;11813;50.834;4.280;2023-07-13T09:47:39;22.60;99.90
23289;DHT22;11813;50.834;4.280;2023-07-13T09:50:15;22.60;99.90
23289;DHT22;11813;50.834;4.280;2023-07-13T09:52:48;22.70;99.90
23289;DHT22;11813;50.834;4.280;2023-07-13T09:57:55;22.90;99.90
23289;DHT22;11813;50.834;4.280;2023-07-13T10:00:26;22.80;99.90
23289;DHT22;11813;50.834;4.280;2023-07-13T10:05:52;23.00;99.90
23289;DHT22;11813;50.834;4.280;2023-07-13T10:08:26;22.90;99.90
23289;DHT22;11813;50.834;4.280;2023-07-13T10:11:11;22.90;99.90
23289;DHT22;11813;50.834;4.280;2023-07-13T10:13:42;22.90;99.90
23289;DHT22;11813;50.834;4.280;2023-07-13T10:16:08;22.90;99.90
23289;DHT22;11813;50.834;4.280;2023-07-13T10:18:48;23.00;99.90
23289;DHT22;11813;50.834;4.280;2023-07-13T10:21:33;22.90;99.90
23289;DHT22;11813;50.834;4.280;2023-07-13T10:24:27;22.80;99.90
23289;DHT22;11813;50.834;4.280;2023-07-13T10:27:09;23.20;99.90
23289;DHT22;11813;50.834;4.280;2023-07-13T10:29:40;23.50;99.90
23289;DHT22;11813;50.834;4.280;2023-07-13T10:32:12;23.30;99.90
23289;DHT22;11813;50.834;4.280;2023-07-13T10:34:40;23.20;99.90
23289;DHT22;11813;50.834;4.280;2023-07-13T10:37:57;23.30;99.90
23289;DHT22;11813;50.834;4.280;2023-07-13T10:40:04;23.10;99.90
23289;DHT22;11813;50.834;4.280;2023-07-13T10:42:35;22.70;99.90
23289;DHT22;11813;50.834;4.280;2023-07-13T10:45:11;22.70;99.90
23289;DHT22;11813;50.834;4.280;2023-07-13T10:47:37;22.70;99.90
23289;DHT22;11813;50.834;4.280;2023-07-13T10:50:05;22.60;99.90
23289;DHT22;11813;50.834;4.280;2023-07-13T10:52:50;22.80;99.90
23289;DHT22;11813;50.834;4.280;2023-07-13T10:58:36;23.40;99.90
23289;DHT22;11813;50.834;4.280;2023-07-13T11:01:16;23.30;99.90
23289;DHT22;11813;50.834;4.280;2023-07-13T11:03:50;23.30;99.90
23289;DHT22;11813;50.834;4.280;2023-07-13T11:08:55;23.60;99.90
23289;DHT22;11813;50.834;4.280;2023-07-13T11:18:45;23.40;99.90
23289;DHT22;11813;50.834;4.280;2023-07-13T11:21:22;23.60;99.90
23289;DHT22;11813;50.834;4.280;2023-07-13T11:24:13;23.80;99.90
23289;DHT22;11813;50.834;4.280;2023-07-13T11:29:32;24.00;99.90
23289;DHT22;11813;50.834;4.280;2023-07-13T11:32:01;23.90;99.90
23289;DHT22;11813;50.834;4.280;2023-07-13T11:34:43;23.50;99.90
23289;DHT22;11813;50.834;4.280;2023-07-13T11:37:12;23.10;99.90
23289;DHT22;11813;50.834;4.280;2023-07-13T11:39:42;23.00;99.90
23289;DHT22;11813;50.834;4.280;2023-07-13T11:42:12;22.80;99.90
23289;DHT22;11813;50.834;4.280;2023-07-13T11:44:43;22.70;99.90
23289;DHT22;11813;50.834;4.280;2023-07-13T11:47:18;22.50;99.90
23289;DHT22;11813;50.834;4.280;2023-07-13T11:49:49;22.60;99.90
23289;DHT22;11813;50.834;4.280;2023-07-13T11:52:22;22.50;99.90
23289;DHT22;11813;50.834;4.280;2023-07-13T11:54:51;22.50;99.90
23289;DHT22;11813;50.834;4.280;2023-07-13T11:57:37;22.40;99.90
23289;DHT22;11813;50.834;4.280;2023-07-13T12:00:12;22.60;99.90
23289;DHT22;11813;50.834;4.280;2023-07-13T12:02:46;22.70;99.90
23289;DHT22;11813;50.834;4.280;2023-07-13T12:05:14;22.70;99.90
23289;DHT22;11813;50.834;4.280;2023-07-13T12:07:41;22.90;99.90
23289;DHT22;11813;50.834;4.280;2023-07-13T12:10:28;23.00;99.90
23289;DHT22;11813;50.834;4.280;2023-07-13T12:13:01;23.10;99.90
23289;DHT22;11813;50.834;4.280;2023-07-13T12:15:43;22.90;99.90
23289;DHT22;11813;50.834;4.280;2023-07-13T12:18:15;22.90;99.90
23289;DHT22;11813;50.834;4.280;2023-07-13T12:20:41;22.10;99.90
23289;DHT22;11813;50.834;4.280;2023-07-13T12:23:24;21.50;99.90
23289;DHT22;11813;50.834;4.280;2023-07-13T12:25:51;20.70;99.90
23289;DHT22;11813;50.834;4.280;2023-07-13T12:28:48;20.10;99.90
23289;DHT22;11813;50.834;4.280;2023-07-13T12:33:58;19.70;99.90
23289;DHT22;11813;50.834;4.280;2023-07-13T12:36:24;19.70;99.90
23289;DHT22;11813;50.834;4.280;2023-07-13T12:38:51;19.70;99.90
23289;DHT22;11813;50.834;4.280;2023-07-13T12:41:16;19.30;99.90
23289;DHT22;11813;50.834;4.280;2023-07-13T12:43:45;19.20;99.90
23289;DHT22;11813;50.834;4.280;2023-07-13T12:46:23;19.10;99.90
23289;DHT22;11813;50.834;4.280;2023-07-13T12:48:51;19.10;99.90
23289;DHT22;11813;50.834;4.280;2023-07-13T12:51:22;19.10;99.90
23289;DHT22;11813;50.834;4.280;2023-07-13T12:53:50;19.00;99.90
23289;DHT22;11813;50.834;4.280;2023-07-13T12:56:24;19.10;99.90
23289;DHT22;11813;50.834;4.280;2023-07-13T12:58:56;19.30;99.90
23289;DHT22;11813;50.834;4.280;2023-07-13T13:01:23;19.60;99.90
23289;DHT22;11813;50.834;4.280;2023-07-13T13:03:53;19.90;99.90
23289;DHT22;11813;50.834;4.280;2023-07-13T13:06:22;20.20;99.90
23289;DHT22;11813;50.834;4.280;2023-07-13T13:08:56;20.50;99.90
23289;DHT22;11813;50.834;4.280;2023-07-13T13:11:24;20.60;99.90
23289;DHT22;11813;50.834;4.280;2023-07-13T13:13:51;20.70;99.90
23289;DHT22;11813;50.834;4.280;2023-07-13T13:18:46;20.90;99.90
23289;DHT22;11813;50.834;4.280;2023-07-13T13:21:11;20.80;99.90
23289;DHT22;11813;50.834;4.280;2023-07-13T13:23:37;20.90;99.90
23289;DHT22;11813;50.834;4.280;2023-07-13T13:26:08;21.20;99.90
23289;DHT22;11813;50.834;4.280;2023-07-13T13:28:34;21.50;99.90
23289;DHT22;11813;50.834;4.280;2023-07-13T13:31:00;21.60;99.90
23289;DHT22;11813;50.834;4.280;2023-07-13T13:33:25;21.90;99.90
23289;DHT22;11813;50.834;4.280;2023-07-13T13:35:51;21.90;99.90
23289;DHT22;11813;50.834;4.280;2023-07-13T13:38:20;22.40;99.90
23289;DHT22;11813;50.834;4.280;2023-07-13T13:40:46;22.90;99.90
23289;DHT22;11813;50.834;4.280;2023-07-13T13:45:42;23.20;99.90
23289;DHT22;11813;50.834;4.280;2023-07-13T13:48:17;23.30;99.90
23289;DHT22;11813;50.834;4.280;2023-07-13T13:50:43;23.40;99.90
23289;DHT22;11813;50.834;4.280;2023-07-13T13:53:14;23.40;99.90
23289;DHT22;11813;50.834;4.280;2023-07-13T13:55:40;23.30;99.90
23289;DHT22;11813;50.834;4.280;2023-07-13T13:58:10;23.40;99.90
23289;DHT22;11813;50.834;4.280;2023-07-13T14:00:39;23.40;99.90
23289;DHT22;11813;50.834;4.280;2023-07-13T14:03:05;23.50;99.90
23289;DHT22;11813;50.834;4.280;2023-07-13T14:05:33;23.60;99.90
23289;DHT22;11813;50.834;4.280;2023-07-13T14:07:59;23.80;99.90
23289;DHT22;11813;50.834;4.280;2023-07-13T14:10:25;23.80;99.90
23289;DHT22;11813;50.834;4.280;2023-07-13T14:12:54;23.60;99.90
23289;DHT22;11813;50.834;4.280;2023-07-13T14:15:26;23.40;99.90
23289;DHT22;11813;50.834;4.280;2023-07-13T14:17:54;23.20;99.90
23289;DHT22;11813;50.834;4.280;2023-07-13T14:20:22;22.90;99.90
23289;DHT22;11813;50.834;4.280;2023-07-13T14:22:49;22.70;99.90
23289;DHT22;11813;50.834;4.280;2023-07-13T14:25:16;22.30;99.90
23289;DHT22;11813;50.834;4.280;2023-07-13T14:27:44;22.30;99.90
23289;DHT22;11813;50.834;4.280;2023-07-13T14:30:18;22.40;99.90
23289;DHT22;11813;50.834;4.280;2023-07-13T14:32:44;22.40;99.90
23289;DHT22;11813;50.834;4.280;2023-07-13T14:35:12;22.40;99.90
23289;DHT22;11813;50.834;4.280;2023-07-13T14:37:39;22.60;99.90
23289;DHT22;11813;50.834;4.280;2023-07-13T14:40:13;22.90;99.90
23289;DHT22;11813;50.834;4.280;2023-07-13T14:42:39;23.40;99.90
23289;DHT22;11813;50.834;4.280;2023-07-13T14:45:05;24.00;99.90
23289;DHT22;11813;50.834;4.280;2023-07-13T14:47:31;24.70;99.90
23289;DHT22;11813;50.834;4.280;2023-07-13T14:49:56;25.10;99.90
23289;DHT22;11813;50.834;4.280;2023-07-13T14:52:23;25.70;99.90
23289;DHT22;11813;50.834;4.280;2023-07-13T14:54:50;26.40;99.90
23289;DHT22;11813;50.834;4.280;2023-07-13T14:57:17;26.50;99.90
23289;DHT22;11813;50.834;4.280;2023-07-13T14:59:47;27.00;99.90
23289;DHT22;11813;50.834;4.280;2023-07-13T15:02:19;27.00;99.90
23289;DHT22;11813;50.834;4.280;2023-07-13T15:04:47;27.20;99.90
23289;DHT22;11813;50.834;4.280;2023-07-13T15:07:12;27.20;99.90
23289;DHT22;11813;50.834;4.280;2023-07-13T15:09:41;27.00;99.90
23289;DHT22;11813;50.834;4.280;2023-07-13T15:12:07;27.20;99.90
23289;DHT22;11813;50.834;4.280;2023-07-13T15:14:32;27.40;99.90
23289;DHT22;11813;50.834;4.280;2023-07-13T15:16:58;27.30;99.90
23289;DHT22;11813;50.834;4.280;2023-07-13T15:19:25;27.30;99.90
23289;DHT22;11813;50.834;4.280;2023-07-13T15:21:52;26.70;99.90
23289;DHT22;11813;50.834;4.280;2023-07-13T15:24:20;26.50;99.90
23289;DHT22;11813;50.834;4.280;2023-07-13T15:26:46;26.70;99.90
23289;DHT22;11813;50.834;4.280;2023-07-13T15:29:17;26.90;99.90
23289;DHT22;11813;50.834;4.280;2023-07-13T15:31:43;27.20;99.90
23289;DHT22;11813;50.834;4.280;2023-07-13T15:34:12;27.40;99.90
23289;DHT22;11813;50.834;4.280;2023-07-13T15:36:39;27.60;99.90
23289;DHT22;11813;50.834;4.280;2023-07-13T15:39:05;28.00;99.90
23289;DHT22;11813;50.834;4.280;2023-07-13T15:41:31;27.80;99.90
23289;DHT22;11813;50.834;4.280;2023-07-13T15:43:59;27.70;99.90
23289;DHT22;11813;50.834;4.280;2023-07-13T15:46:26;28.00;99.90
23289;DHT22;11813;50.834;4.280;2023-07-13T15:48:53;28.40;99.90
23289;DHT22;11813;50.834;4.280;2023-07-13T15:51:30;27.90;99.90
23289;DHT22;11813;50.834;4.280;2023-07-13T15:54:01;27.80;99.90
23289;DHT22;11813;50.834;4.280;2023-07-13T15:56:36;28.20;99.90
23289;DHT22;11813;50.834;4.280;2023-07-13T15:59:02;28.70;99.90
23289;DHT22;11813;50.834;4.280;2023-07-13T16:01:28;28.80;99.90
23289;DHT22;11813;50.834;4.280;2023-07-13T16:03:55;28.90;99.90
23289;DHT22;11813;50.834;4.280;2023-07-13T16:06:27;28.70;99.90
23289;DHT22;11813;50.834;4.280;2023-07-13T16:08:54;28.80;99.90
23289;DHT22;11813;50.834;4.280;2023-07-13T16:11:23;29.00;99.90
23289;DHT22;11813;50.834;4.280;2023-07-13T16:13:50;28.70;99.90